createdAt,value
2018-11-26T00:01:15.032Z,16.15
2018-11-26T00:03:44.021Z,17.20
2018-11-26T00:06:12.481Z,17.00
2018-11-26T00:08:41.611Z,17.30
2018-11-26T00:11:21.321Z,17.27
2018-11-26T00:13:50.313Z,17.27
2018-11-26T00:16:18.735Z,17.45
2018-11-26T00:18:47.160Z,16.15
2018-11-26T00:34:01.349Z,17.32
2018-11-26T02:15:43.012Z,19.27
2018-11-26T02:18:11.658Z,17.02
2018-11-26T02:20:40.109Z,17.92
2018-11-26T02:23:08.588Z,17.10
2018-11-26T02:25:37.121Z,18.30
2018-11-26T02:28:05.871Z,18.25
2018-11-26T02:30:34.302Z,17.48
2018-11-26T02:33:02.724Z,16.77
2018-11-26T02:35:31.122Z,17.25
2018-11-26T02:37:59.547Z,17.92
2018-11-26T02:40:29.138Z,17.90
2018-11-26T02:42:59.324Z,17.55
2018-11-26T02:45:28.825Z,16.97
2018-11-26T02:47:57.316Z,17.80
2018-11-26T02:50:25.713Z,17.37
2018-11-26T02:52:54.111Z,17.17
2018-11-26T02:55:22.654Z,17.20
2018-11-26T02:57:51.186Z,17.30
2018-11-26T03:00:19.969Z,16.75
2018-11-26T03:02:48.401Z,18.70
2018-11-26T03:05:25.679Z,17.50
2018-11-26T03:07:54.147Z,16.25
2018-11-26T03:10:22.781Z,15.55
2018-11-26T03:12:51.313Z,16.70
2018-11-26T03:15:19.814Z,17.73
2018-11-26T03:17:48.231Z,16.80
2018-11-26T03:20:16.631Z,17.55
2018-11-26T03:22:45.049Z,17.40
2018-11-26T03:25:13.807Z,17.00
2018-11-26T03:28:02.331Z,17.67
2018-11-26T03:30:30.747Z,17.55
2018-11-26T03:32:59.159Z,17.73
2018-11-26T03:35:27.571Z,18.27
2018-11-26T03:37:55.983Z,17.95
2018-11-26T03:40:24.397Z,18.27
2018-11-26T03:42:52.883Z,17.62
2018-11-26T03:45:21.352Z,17.73
2018-11-26T03:47:49.757Z,17.42
2018-11-26T03:50:18.187Z,18.48
2018-11-26T03:52:46.639Z,18.17
2018-11-26T03:55:15.062Z,17.35
2018-11-26T03:57:43.541Z,17.37
2018-11-26T04:00:16.313Z,17.75
2018-11-26T04:02:44.783Z,17.42
2018-11-26T04:05:13.409Z,18.23
2018-11-26T04:07:41.902Z,18.27
2018-11-26T04:10:11.521Z,18.80
2018-11-26T04:12:40.007Z,19.90
2018-11-26T04:15:11.152Z,18.20
2018-11-26T04:17:39.638Z,17.27
2018-11-26T04:20:08.836Z,18.40
2018-11-26T04:22:37.346Z,17.40
2018-11-26T04:25:07.130Z,17.27
2018-11-26T06:37:42.719Z,21.27
2018-11-26T06:40:11.962Z,21.02
2018-11-26T06:42:40.438Z,20.95
2018-11-26T06:45:14.371Z,22.58
2018-11-26T06:47:42.915Z,23.50
2018-11-26T06:50:12.580Z,23.77
2018-11-26T06:52:40.958Z,23.42
2018-11-26T06:55:11.172Z,26.95
2018-11-26T06:57:39.634Z,22.95
2018-11-26T07:00:10.823Z,24.37
2018-11-26T07:02:39.338Z,24.40
2018-11-26T07:05:10.218Z,25.65
2018-11-26T07:07:38.630Z,23.70
2018-11-26T07:10:21.027Z,23.32
2018-11-26T07:12:49.605Z,24.30
2018-11-26T07:15:19.551Z,22.75
2018-11-26T07:17:47.955Z,23.85
2018-11-26T07:20:18.166Z,23.42
2018-11-26T07:22:46.636Z,24.35
2018-11-26T07:25:16.435Z,23.75
2018-11-26T07:27:47.045Z,24.10
2018-11-26T07:30:18.361Z,22.62
2018-11-26T07:32:46.773Z,22.10
2018-11-26T07:35:15.729Z,23.50
2018-11-26T07:37:44.543Z,24.00
2018-11-26T07:40:19.859Z,24.47
2018-11-26T07:42:51.697Z,24.55
2018-11-26T07:45:21.053Z,25.90
2018-11-26T07:47:49.488Z,27.35
2018-11-26T07:50:18.900Z,27.25
2018-11-26T07:52:47.960Z,28.50
2018-11-26T07:55:19.505Z,27.93
2018-11-26T07:57:47.968Z,26.57
2018-11-26T08:00:18.157Z,25.32
2018-11-26T08:02:46.970Z,26.07
2018-11-26T08:05:17.527Z,25.72
2018-11-26T08:07:45.899Z,23.62
2018-11-26T08:10:15.453Z,24.70
2018-11-26T08:12:44.450Z,25.50
2018-11-26T08:15:18.620Z,23.87
2018-11-26T08:17:47.155Z,23.40
2018-11-26T08:20:15.544Z,27.80
2018-11-26T08:22:43.966Z,25.70
2018-11-26T08:25:14.635Z,27.13
2018-11-26T08:27:44.334Z,24.60
2018-11-26T08:30:17.643Z,25.30
2018-11-26T08:32:48.345Z,26.10
2018-11-26T08:35:17.521Z,26.57
2018-11-26T08:37:51.247Z,26.42
2018-11-26T08:40:25.266Z,26.93
2018-11-26T08:44:01.574Z,26.93
2018-11-26T08:46:32.573Z,25.75
2018-11-26T08:49:25.037Z,25.25
2018-11-26T08:51:54.485Z,26.80
2018-11-26T08:54:22.915Z,28.20
2018-11-26T08:56:52.015Z,27.87
2018-11-26T08:59:20.477Z,26.12
2018-11-26T09:01:51.323Z,25.35
2018-11-26T09:04:23.377Z,25.85
2018-11-26T09:06:51.763Z,25.72
2018-11-26T09:09:20.121Z,26.35
2018-11-26T09:11:48.565Z,25.10
2018-11-26T09:14:17.031Z,25.75
2018-11-26T09:16:45.439Z,24.95
2018-11-26T09:19:13.983Z,25.40
2018-11-26T09:21:42.397Z,26.70
2018-11-26T09:24:10.795Z,23.65
2018-11-26T09:26:39.200Z,25.60
2018-11-26T09:29:07.561Z,25.43
2018-11-26T09:31:35.927Z,25.92
2018-11-26T11:23:39.926Z,21.93
2018-11-26T11:26:08.364Z,21.70
2018-11-26T11:28:36.787Z,23.60
2018-11-26T11:31:05.785Z,21.87
2018-11-26T11:33:34.177Z,21.77
2018-11-26T11:36:02.627Z,22.98
2018-11-26T11:38:31.053Z,24.55
2018-11-26T11:40:59.413Z,22.55
2018-11-26T11:43:27.866Z,23.10
2018-11-26T11:45:56.249Z,22.60
2018-11-26T11:48:24.699Z,22.82
2018-11-26T11:50:53.114Z,24.90
2018-11-26T11:53:21.549Z,22.75
2018-11-26T11:55:49.940Z,24.57
2018-11-26T11:58:18.356Z,22.75
2018-11-26T12:00:48.103Z,21.95
2018-11-26T12:03:17.848Z,22.77
2018-11-26T12:05:46.348Z,21.75
2018-11-26T12:08:14.911Z,22.87
2018-11-26T12:10:43.449Z,23.57
2018-11-26T12:13:13.167Z,22.35
2018-11-26T12:15:44.718Z,23.20
2018-11-26T12:18:14.721Z,25.48
2018-11-26T12:20:43.383Z,24.10
2018-11-26T12:23:12.318Z,24.77
2018-11-26T12:25:40.763Z,23.40
2018-11-26T12:28:09.181Z,25.02
2018-11-26T12:30:39.452Z,24.90
2018-11-26T12:33:08.077Z,24.10
2018-11-26T12:35:36.797Z,24.18
2018-11-26T12:38:05.467Z,24.72
2018-11-26T12:40:33.940Z,25.62
2018-11-26T12:43:03.393Z,24.72
2018-11-26T12:45:33.525Z,25.02
2018-11-26T12:48:02.301Z,24.75
2018-11-26T15:02:16.173Z,26.07
2018-11-26T15:04:44.690Z,26.12
2018-11-26T15:07:14.266Z,24.27
2018-11-26T15:09:42.667Z,24.70
2018-11-26T15:12:11.148Z,25.80
2018-11-26T15:14:42.295Z,23.55
2018-11-26T15:17:13.121Z,25.02
2018-11-26T15:19:41.678Z,24.57
2018-11-26T15:22:11.310Z,25.08
2018-11-26T15:24:39.748Z,26.50
2018-11-26T15:27:09.286Z,25.80
2018-11-26T15:29:38.802Z,25.55
2018-11-26T15:32:07.586Z,27.65
2018-11-26T15:34:36.300Z,27.07
2018-11-26T15:37:05.353Z,26.95
2018-11-26T15:39:33.839Z,24.95
2018-11-26T15:42:02.237Z,27.75
2018-11-26T15:44:30.575Z,27.27
2018-11-26T15:46:59.204Z,28.05
2018-11-26T15:49:27.648Z,25.48
2018-11-26T15:51:56.638Z,29.10
2018-11-26T15:54:25.100Z,27.85
2018-11-26T15:56:53.518Z,27.27
2018-11-26T15:59:21.898Z,29.55
2018-11-26T16:01:50.304Z,29.60
2018-11-26T16:04:18.752Z,27.60
2018-11-26T16:57:50.736Z,31.52
2018-11-26T17:00:27.887Z,29.90
2018-11-26T17:03:06.783Z,33.25
2018-11-26T17:05:38.727Z,33.78
2018-11-26T17:08:09.037Z,32.93
2018-11-26T17:10:37.447Z,33.00
2018-11-26T17:13:08.879Z,34.20
2018-11-26T17:18:28.055Z,31.82
2018-11-26T17:20:59.783Z,34.05
2018-11-26T17:23:28.166Z,34.80
2018-11-26T17:25:57.050Z,32.90
2018-11-26T17:28:25.653Z,33.35
2018-11-26T17:30:54.124Z,33.92
2018-11-26T17:33:22.556Z,33.40
2018-11-26T17:35:51.238Z,34.33
2018-11-26T17:38:19.839Z,33.10
2018-11-26T17:40:50.349Z,35.00
2018-11-26T17:43:20.353Z,35.78
2018-11-26T17:45:48.843Z,37.65
2018-11-26T17:48:18.339Z,36.68
2018-11-26T17:50:46.869Z,36.53
2018-11-26T17:53:17.680Z,35.08
2018-11-26T17:55:54.033Z,36.00
2018-11-26T17:58:23.885Z,37.10
2018-11-26T18:00:55.999Z,36.53
2018-11-26T18:03:29.408Z,36.08
2018-11-26T18:05:57.855Z,34.95
2018-11-26T18:08:26.359Z,35.63
2018-11-26T18:10:54.813Z,34.43
2018-11-26T18:13:23.218Z,36.40
2018-11-26T18:15:51.606Z,39.45
2018-11-26T18:18:20.516Z,35.50
2018-11-26T18:20:49.081Z,35.28
2018-11-26T18:23:17.469Z,35.38
2018-11-26T18:25:46.025Z,36.15
2018-11-26T18:28:15.727Z,35.28
2018-11-26T18:30:46.553Z,35.68
2018-11-26T18:33:15.301Z,36.35
2018-11-26T18:35:46.396Z,36.13
2018-11-26T18:38:18.249Z,33.15
2018-11-26T18:40:48.319Z,37.85
2018-11-26T18:43:19.905Z,36.45
2018-11-26T18:49:15.947Z,35.70
2018-11-26T18:51:44.707Z,37.30
2018-11-26T18:54:13.133Z,41.20
2018-11-26T18:56:42.315Z,37.93
2018-11-26T18:59:10.908Z,36.48
2018-11-26T19:01:39.371Z,38.55
2018-11-26T19:04:07.822Z,37.05
2018-11-26T19:06:46.497Z,35.95
2018-11-26T19:09:19.410Z,38.00
2018-11-26T19:11:48.411Z,48.85
2018-11-26T19:14:20.054Z,38.20
2018-11-26T19:16:50.075Z,36.53
2018-11-26T19:19:18.575Z,39.55
2018-11-26T19:21:47.167Z,36.65
2018-11-26T19:24:20.542Z,39.63
2018-11-26T19:26:49.051Z,38.28
2018-11-26T19:29:17.457Z,38.20
2018-11-26T19:31:45.871Z,38.75
2018-11-26T19:34:14.269Z,37.05
2018-11-26T19:36:48.193Z,39.33
2018-11-26T19:39:16.976Z,38.05
2018-11-26T19:41:46.163Z,39.55
2018-11-26T19:44:25.791Z,37.55
2018-11-26T19:46:54.798Z,41.40
2018-11-26T19:49:23.283Z,41.80
2018-11-26T20:23:25.796Z,37.08
2018-11-26T20:25:59.885Z,38.73
2018-11-26T20:28:35.637Z,37.95
2018-11-26T20:31:10.595Z,39.25
2018-11-26T20:33:57.755Z,37.75
2018-11-26T20:36:31.061Z,37.28
2018-11-26T20:38:59.943Z,42.20
2018-11-26T20:41:34.181Z,39.10
2018-11-26T20:44:02.833Z,40.63
2018-11-26T20:46:31.344Z,39.45
2018-11-26T20:49:00.307Z,42.17
2018-11-26T20:51:29.323Z,39.83
2018-11-26T20:53:57.766Z,42.33
2018-11-26T20:56:26.209Z,40.12
2018-11-26T21:02:18.797Z,39.03
2018-11-26T21:04:54.033Z,38.23
2018-11-26T21:07:27.373Z,38.83
2018-11-26T21:09:56.869Z,40.75
2018-11-26T21:12:25.349Z,38.98
2018-11-26T21:14:55.465Z,39.33
2018-11-26T21:17:25.238Z,39.42
2018-11-26T21:19:54.097Z,40.28
2018-11-26T21:22:22.721Z,40.85
2018-11-26T21:24:51.999Z,38.02
2018-11-26T21:27:21.465Z,42.65
2018-11-26T21:29:50.622Z,39.98
2018-11-26T21:32:21.045Z,39.63
2018-11-26T21:34:49.569Z,39.95
2018-11-26T21:37:18.080Z,37.50
2018-11-26T21:39:46.614Z,36.63
2018-11-26T21:42:21.082Z,43.85
2018-11-26T21:44:49.673Z,43.73
2018-11-26T22:45:00.838Z,35.85
2018-11-26T22:47:29.220Z,38.40
2018-11-26T22:49:57.630Z,37.93
2018-11-26T22:52:26.072Z,38.30
2018-11-26T22:54:54.474Z,36.88
2018-11-26T22:57:22.881Z,39.08
2018-11-26T22:59:56.792Z,37.90
2018-11-26T23:02:25.266Z,37.63
2018-11-26T23:04:53.701Z,35.52
2018-11-26T23:07:22.113Z,37.10
2018-11-26T23:09:50.507Z,36.85
2018-11-26T23:12:19.020Z,37.55
2018-11-26T23:14:47.439Z,37.53
2018-11-26T23:17:15.925Z,37.25
2018-11-26T23:19:44.406Z,36.93
2018-11-26T23:22:12.884Z,39.30
2018-11-26T23:24:41.401Z,36.88
2018-11-26T23:27:09.797Z,42.10
2018-11-26T23:29:38.161Z,37.63
2018-11-26T23:32:06.635Z,37.55
2018-11-26T23:34:35.059Z,36.77
2018-11-26T23:37:03.466Z,39.33
2018-11-26T23:39:31.866Z,37.45
2018-11-26T23:42:00.253Z,36.75
2018-11-26T23:44:28.657Z,37.98
2018-11-26T23:46:57.036Z,36.68
2018-11-26T23:49:25.366Z,37.10
2018-11-26T23:51:53.831Z,36.25
2018-11-26T23:54:22.376Z,36.90
2018-11-26T23:56:50.916Z,36.50
2018-11-26T23:59:20.323Z,35.50
